createdAt,value
2023-02-24T00:01:14.552Z,99.90
2023-02-24T00:03:41.236Z,99.90
2023-02-24T00:06:07.860Z,99.90
2023-02-24T00:08:34.576Z,99.90
2023-02-24T00:11:01.201Z,99.90
2023-02-24T00:13:27.899Z,99.90
2023-02-24T00:15:54.650Z,99.90
2023-02-24T00:18:21.368Z,99.90
2023-02-24T01:01:53.218Z,99.90
2023-02-24T01:04:20.081Z,99.90
2023-02-24T01:06:47.106Z,99.90
2023-02-24T01:09:13.856Z,99.90
2023-02-24T01:25:22.083Z,99.90
2023-02-24T01:27:48.835Z,99.90
2023-02-24T01:30:16.410Z,99.90
2023-02-24T01:32:43.440Z,99.90
2023-02-24T01:35:10.261Z,99.90
2023-02-24T01:37:36.947Z,99.90
2023-02-24T01:40:03.737Z,99.90
2023-02-24T01:42:30.465Z,99.90
2023-02-24T01:44:57.213Z,99.90
2023-02-24T01:47:23.933Z,99.90
2023-02-24T01:49:50.624Z,99.90
2023-02-24T01:52:17.404Z,99.90
2023-02-24T01:54:44.105Z,99.90
2023-02-24T01:57:10.770Z,99.90
2023-02-24T01:59:37.526Z,99.90
2023-02-24T02:02:04.421Z,99.90
2023-02-24T02:04:31.410Z,99.90
2023-02-24T02:06:58.169Z,99.90
2023-02-24T02:09:24.819Z,99.90
2023-02-24T02:11:51.526Z,99.90
2023-02-24T02:14:18.271Z,99.90
2023-02-24T02:16:44.947Z,99.90
2023-02-24T02:19:11.641Z,99.90
2023-02-24T02:21:38.316Z,99.90
2023-02-24T02:24:05.015Z,99.90
2023-02-24T02:26:31.817Z,99.90
2023-02-24T02:28:58.494Z,99.90
2023-02-24T02:31:25.719Z,99.90
2023-02-24T02:33:52.797Z,99.90
2023-02-24T02:36:19.545Z,99.90
2023-02-24T02:38:46.211Z,99.90
2023-02-24T02:41:13.006Z,99.90
2023-02-24T02:43:39.707Z,99.90
2023-02-24T02:46:06.425Z,99.90
2023-02-24T02:48:33.243Z,99.90
2023-02-24T02:50:59.925Z,99.90
2023-02-24T02:53:26.582Z,99.90
2023-02-24T02:55:53.321Z,99.90
2023-02-24T02:58:20.034Z,99.90
2023-02-24T03:00:46.830Z,99.90
2023-02-24T03:03:13.524Z,99.90
2023-02-24T03:05:40.260Z,99.90
2023-02-24T03:08:06.944Z,99.90
2023-02-24T03:10:33.647Z,99.90
2023-02-24T03:13:00.367Z,99.90
2023-02-24T03:15:27.047Z,99.90
2023-02-24T03:17:53.809Z,99.90
2023-02-24T03:20:20.606Z,99.90
2023-02-24T03:22:47.386Z,99.90
2023-02-24T03:25:14.042Z,99.90
2023-02-24T03:27:40.855Z,99.90
2023-02-24T03:30:07.603Z,99.90
2023-02-24T03:32:34.367Z,99.90
2023-02-24T03:35:01.136Z,99.90
2023-02-24T03:37:27.902Z,99.90
2023-02-24T03:39:54.700Z,99.90
2023-02-24T03:42:21.380Z,99.90
2023-02-24T03:44:48.147Z,99.90
2023-02-24T03:47:14.921Z,99.90
2023-02-24T03:49:41.647Z,99.90
2023-02-24T03:52:08.450Z,99.90
2023-02-24T03:54:35.153Z,99.90
2023-02-24T03:57:01.944Z,99.90
2023-02-24T03:59:28.671Z,99.90
2023-02-24T04:01:55.405Z,99.90
2023-02-24T04:04:22.167Z,99.90
2023-02-24T04:06:48.853Z,99.90
2023-02-24T04:09:15.599Z,99.90
2023-02-24T04:11:42.309Z,99.90
2023-02-24T04:14:08.958Z,99.90
2023-02-24T04:16:35.658Z,99.90
2023-02-24T04:19:02.297Z,99.90
2023-02-24T04:21:28.988Z,99.90
2023-02-24T04:23:55.664Z,99.90
2023-02-24T04:26:22.346Z,99.90
2023-02-24T04:28:48.957Z,99.90
2023-02-24T04:31:15.671Z,99.90
2023-02-24T04:33:42.381Z,99.90
2023-02-24T04:36:09.031Z,99.90
2023-02-24T04:38:35.791Z,99.90
2023-02-24T04:41:02.482Z,99.90
2023-02-24T04:43:29.099Z,99.90
2023-02-24T04:45:55.760Z,99.90
2023-02-24T04:48:22.626Z,99.90
2023-02-24T04:50:49.350Z,99.90
2023-02-24T04:53:15.995Z,99.90
2023-02-24T04:55:42.679Z,99.90
2023-02-24T04:58:09.387Z,99.90
2023-02-24T05:00:36.121Z,99.90
2023-02-24T05:03:02.756Z,99.90
2023-02-24T05:05:29.418Z,99.90
2023-02-24T05:07:56.106Z,99.90
2023-02-24T05:10:22.748Z,99.90
2023-02-24T05:12:49.350Z,99.90
2023-02-24T05:15:15.998Z,99.90
2023-02-24T05:17:42.596Z,99.90
2023-02-24T05:20:09.308Z,99.90
2023-02-24T05:22:36.022Z,99.90
2023-02-24T05:25:02.688Z,99.90
2023-02-24T05:27:29.338Z,99.90
2023-02-24T05:29:56.008Z,99.90
2023-02-24T05:32:22.890Z,99.90
2023-02-24T05:34:49.628Z,99.90
2023-02-24T05:37:16.340Z,99.90
2023-02-24T05:39:43.005Z,99.90
2023-02-24T05:42:09.662Z,99.90
2023-02-24T05:44:36.287Z,99.90
2023-02-24T05:47:03.113Z,99.90
2023-02-24T05:49:29.846Z,99.90
2023-02-24T05:51:56.901Z,99.90
2023-02-24T05:54:23.524Z,99.90
2023-02-24T05:56:50.163Z,99.90
2023-02-24T05:59:16.825Z,99.90
2023-02-24T06:01:43.550Z,99.90
2023-02-24T06:04:10.241Z,99.90
2023-02-24T06:06:36.863Z,99.90
2023-02-24T06:09:03.581Z,99.90
2023-02-24T06:11:30.247Z,99.90
2023-02-24T06:13:56.840Z,99.90
2023-02-24T06:16:23.493Z,99.90
2023-02-24T06:18:50.139Z,99.90
2023-02-24T06:21:16.870Z,99.90
2023-02-24T06:23:43.527Z,99.90
2023-02-24T06:26:10.181Z,99.90
2023-02-24T06:28:36.844Z,99.90
2023-02-24T06:31:03.463Z,99.90
2023-02-24T06:33:30.399Z,99.90
2023-02-24T06:35:57.029Z,99.90
2023-02-24T06:38:23.675Z,99.90
2023-02-24T06:40:50.332Z,99.90
2023-02-24T06:43:17.282Z,99.90
2023-02-24T06:45:44.029Z,99.90
2023-02-24T06:48:10.671Z,99.90
2023-02-24T06:50:37.323Z,99.90
2023-02-24T06:53:04.003Z,99.90
2023-02-24T06:55:30.680Z,99.90
2023-02-24T06:57:57.381Z,99.90
2023-02-24T07:00:24.061Z,99.90
2023-02-24T07:02:50.672Z,99.90
2023-02-24T07:05:17.484Z,99.90
2023-02-24T07:07:44.137Z,99.90
2023-02-24T07:10:10.743Z,99.90
2023-02-24T07:12:37.428Z,99.90
2023-02-24T07:15:04.128Z,99.90
2023-02-24T07:17:30.746Z,99.90
2023-02-24T07:19:57.469Z,99.90
2023-02-24T07:22:24.153Z,99.90
2023-02-24T07:24:50.850Z,99.90
2023-02-24T07:27:17.528Z,99.90
2023-02-24T07:29:44.199Z,99.90
2023-02-24T07:32:11.061Z,99.90
2023-02-24T07:34:37.830Z,99.90
2023-02-24T07:37:04.519Z,99.90
2023-02-24T07:39:31.261Z,99.90
2023-02-24T07:41:59.740Z,99.90
2023-02-24T07:44:26.396Z,99.90
2023-02-24T07:46:53.066Z,99.90
2023-02-24T07:49:19.781Z,99.90
2023-02-24T07:51:46.479Z,99.90
2023-02-24T07:54:13.320Z,99.90
2023-02-24T07:56:40.063Z,99.90
2023-02-24T07:59:06.692Z,99.90
2023-02-24T08:01:33.354Z,99.90
2023-02-24T08:03:59.982Z,99.90
2023-02-24T08:06:26.650Z,99.90
2023-02-24T08:08:53.288Z,99.90
2023-02-24T08:11:20.242Z,99.90
2023-02-24T08:13:46.958Z,99.90
2023-02-24T08:16:13.688Z,99.90
2023-02-24T08:18:40.354Z,99.90
2023-02-24T08:21:06.982Z,99.90
2023-02-24T08:23:33.612Z,99.90
2023-02-24T08:26:00.380Z,99.90
2023-02-24T08:28:27.096Z,99.90
2023-02-24T08:30:53.897Z,99.90
2023-02-24T08:33:20.721Z,99.90
2023-02-24T08:35:47.407Z,99.90
2023-02-24T08:38:14.059Z,99.90
2023-02-24T08:40:40.699Z,99.90
2023-02-24T08:43:07.445Z,99.90
2023-02-24T08:45:34.087Z,99.90
2023-02-24T08:48:00.782Z,99.90
2023-02-24T08:50:27.525Z,99.90
2023-02-24T08:52:54.285Z,99.90
2023-02-24T08:55:20.958Z,99.90
2023-02-24T08:57:47.629Z,99.90
2023-02-24T09:00:14.272Z,99.90
2023-02-24T09:02:40.969Z,99.90
2023-02-24T09:05:07.716Z,99.90
2023-02-24T09:07:34.389Z,99.90
2023-02-24T09:10:01.050Z,99.90
2023-02-24T09:12:27.681Z,99.90
2023-02-24T09:14:54.378Z,99.90
2023-02-24T09:17:21.090Z,99.90
2023-02-24T09:19:47.797Z,99.90
2023-02-24T09:22:21.294Z,99.90
2023-02-24T09:24:48.313Z,99.90
2023-02-24T09:27:14.971Z,99.90
2023-02-24T09:29:41.657Z,99.90
2023-02-24T09:32:09.457Z,99.90
2023-02-24T09:34:36.171Z,99.90
2023-02-24T09:37:02.930Z,99.90
2023-02-24T09:39:29.843Z,99.90
2023-02-24T09:41:56.599Z,99.90
2023-02-24T09:44:23.305Z,99.90
2023-02-24T09:46:50.133Z,99.90
2023-02-24T09:49:16.775Z,99.90
2023-02-24T09:51:43.463Z,99.90
2023-02-24T09:54:10.163Z,99.90
2023-02-24T09:56:36.844Z,99.90
2023-02-24T09:59:03.529Z,99.90
2023-02-24T10:01:30.273Z,99.90
2023-02-24T10:03:56.982Z,99.90
2023-02-24T10:06:23.669Z,99.90
2023-02-24T10:08:50.309Z,99.90
2023-02-24T10:11:16.938Z,99.90
2023-02-24T10:13:43.586Z,99.90
2023-02-24T10:16:10.256Z,99.90
2023-02-24T10:18:36.934Z,99.90
2023-02-24T10:21:03.757Z,99.90
2023-02-24T10:23:30.457Z,99.90
2023-02-24T10:25:57.128Z,99.90
2023-02-24T10:28:23.795Z,99.90
2023-02-24T10:30:50.529Z,99.90
2023-02-24T10:33:17.248Z,99.90
2023-02-24T10:35:43.966Z,99.90
2023-02-24T10:38:10.640Z,99.90
2023-02-24T10:40:37.449Z,99.90
2023-02-24T10:43:04.100Z,99.90
2023-02-24T10:45:34.676Z,99.90
2023-02-24T10:48:01.645Z,99.90
2023-02-24T10:50:29.812Z,99.90
2023-02-24T10:52:58.681Z,99.90
2023-02-24T10:55:25.532Z,99.90
2023-02-24T10:57:58.964Z,99.90
2023-02-24T11:00:25.978Z,99.90
2023-02-24T11:02:52.677Z,99.90
2023-02-24T11:05:19.372Z,99.90
2023-02-24T11:07:46.019Z,99.90
2023-02-24T11:10:12.739Z,99.90
2023-02-24T11:12:39.358Z,99.90
2023-02-24T11:15:06.072Z,99.90
2023-02-24T11:17:32.749Z,99.90
2023-02-24T11:19:59.454Z,99.90
2023-02-24T11:22:26.188Z,99.90
2023-02-24T11:24:52.829Z,99.90
2023-02-24T11:27:19.553Z,99.90
2023-02-24T11:29:46.220Z,99.90
2023-02-24T11:32:15.225Z,99.90
2023-02-24T11:34:42.255Z,99.90
2023-02-24T11:37:08.870Z,99.90
2023-02-24T11:39:35.470Z,99.90
2023-02-24T11:42:02.093Z,99.90
2023-02-24T11:44:28.801Z,99.90
2023-02-24T11:46:55.415Z,99.90
2023-02-24T11:49:22.136Z,99.90
2023-02-24T11:51:48.768Z,99.90
2023-02-24T11:54:15.472Z,99.90
2023-02-24T11:56:42.096Z,99.90
2023-02-24T11:59:08.831Z,99.90
2023-02-24T12:01:35.555Z,99.90
2023-02-24T12:04:02.187Z,99.90
2023-02-24T12:06:28.897Z,99.90
2023-02-24T12:08:55.579Z,99.90
2023-02-24T12:11:22.656Z,99.90
2023-02-24T12:13:49.793Z,99.50
2023-02-24T12:16:16.540Z,99.50
2023-02-24T12:18:43.218Z,98.90
2023-02-24T12:21:09.844Z,99.50
2023-02-24T12:23:38.377Z,98.90
2023-02-24T12:26:05.014Z,98.00
2023-02-24T12:28:31.694Z,98.00
2023-02-24T12:30:58.420Z,97.80
2023-02-24T12:33:25.145Z,97.80
2023-02-24T12:35:51.826Z,99.20
2023-02-24T12:38:18.600Z,98.80
2023-02-24T12:40:45.333Z,99.10
2023-02-24T12:43:12.013Z,98.00
2023-02-24T12:45:38.770Z,98.30
2023-02-24T12:48:05.500Z,97.90
2023-02-24T12:50:32.245Z,98.40
2023-02-24T12:52:59.019Z,97.70
2023-02-24T12:55:25.691Z,96.90
2023-02-24T12:57:52.372Z,97.90
2023-02-24T13:00:18.995Z,97.20
2023-02-24T13:02:45.610Z,97.10
2023-02-24T13:05:12.332Z,96.90
2023-02-24T13:07:38.994Z,97.30
2023-02-24T13:10:05.752Z,97.40
2023-02-24T13:12:32.522Z,95.90
2023-02-24T13:14:59.174Z,96.30
2023-02-24T13:17:25.928Z,96.70
2023-02-24T13:19:52.612Z,97.10
2023-02-24T13:22:19.285Z,95.80
2023-02-24T13:24:46.021Z,95.50
2023-02-24T13:27:12.688Z,96.00
2023-02-24T13:29:39.373Z,95.60
2023-02-24T13:32:06.145Z,95.80
2023-02-24T13:34:32.878Z,96.80
2023-02-24T13:36:59.540Z,96.20
2023-02-24T13:39:26.209Z,95.80
2023-02-24T13:41:52.957Z,95.10
2023-02-24T13:44:19.606Z,95.00
2023-02-24T13:46:46.325Z,94.80
2023-02-24T13:49:12.942Z,95.30
2023-02-24T13:51:39.613Z,95.00
2023-02-24T13:54:06.297Z,95.40
2023-02-24T13:56:32.929Z,95.00
2023-02-24T13:58:59.575Z,94.10
2023-02-24T14:01:26.550Z,94.90
2023-02-24T14:03:53.338Z,94.40
2023-02-24T14:06:20.160Z,94.10
2023-02-24T14:08:46.995Z,94.40
2023-02-24T14:11:13.612Z,94.10
2023-02-24T14:13:40.256Z,93.80
2023-02-24T14:16:07.044Z,93.50
2023-02-24T14:18:33.720Z,93.90
2023-02-24T14:21:00.431Z,92.80
2023-02-24T14:23:27.084Z,91.90
2023-02-24T14:25:53.735Z,91.90
2023-02-24T14:28:20.366Z,91.70
2023-02-24T14:30:47.058Z,91.80
2023-02-24T14:33:13.821Z,91.10
2023-02-24T14:35:40.495Z,90.20
2023-02-24T14:38:07.109Z,91.30
2023-02-24T14:40:33.913Z,90.40
2023-02-24T14:43:00.608Z,90.30
2023-02-24T14:45:27.236Z,88.10
2023-02-24T14:47:53.929Z,88.40
2023-02-24T14:50:20.564Z,89.20
2023-02-24T14:52:47.312Z,89.80
2023-02-24T14:55:13.972Z,89.00
2023-02-24T14:57:40.577Z,88.00
2023-02-24T15:00:07.260Z,86.40
2023-02-24T15:02:33.906Z,88.90
2023-02-24T15:05:00.848Z,89.10
2023-02-24T15:07:27.992Z,89.30
2023-02-24T15:09:54.704Z,88.50
2023-02-24T15:12:21.318Z,88.90
2023-02-24T15:14:48.111Z,88.30
2023-02-24T15:17:14.767Z,88.60
2023-02-24T15:19:41.383Z,88.80
2023-02-24T15:22:08.071Z,89.80
2023-02-24T15:24:34.672Z,89.50
2023-02-24T15:27:01.286Z,89.50
2023-02-24T15:29:27.985Z,89.80
2023-02-24T15:31:54.853Z,90.30
2023-02-24T15:34:21.596Z,90.50
2023-02-24T15:36:48.250Z,90.60
2023-02-24T15:39:14.943Z,90.10
2023-02-24T15:41:41.594Z,90.00
2023-02-24T15:44:08.258Z,90.50
2023-02-24T15:46:34.964Z,91.10
2023-02-24T15:49:01.675Z,91.10
2023-02-24T15:51:28.284Z,91.40
2023-02-24T15:53:54.992Z,90.90
2023-02-24T15:56:21.860Z,91.40
2023-02-24T15:58:48.667Z,91.00
2023-02-24T16:01:15.426Z,91.30
2023-02-24T16:03:42.210Z,91.30
2023-02-24T16:06:10.219Z,91.90
2023-02-24T16:08:38.284Z,92.20
2023-02-24T16:11:04.959Z,92.10
2023-02-24T16:13:31.603Z,91.80
2023-02-24T16:15:58.291Z,91.80
2023-02-24T16:18:24.928Z,91.70
2023-02-24T16:20:51.627Z,91.80
2023-02-24T16:23:18.301Z,91.80
2023-02-24T16:25:44.991Z,91.80
2023-02-24T16:28:11.719Z,91.80
2023-02-24T16:30:38.457Z,91.50
2023-02-24T16:33:05.304Z,91.50
2023-02-24T16:35:31.992Z,91.40
2023-02-24T16:37:58.684Z,92.10
2023-02-24T16:40:25.337Z,92.10
2023-02-24T16:42:51.968Z,92.00
2023-02-24T16:45:18.563Z,92.30
2023-02-24T16:47:45.209Z,92.10
2023-02-24T16:50:11.841Z,92.00
2023-02-24T16:52:38.500Z,92.50
2023-02-24T16:55:05.139Z,92.40
2023-02-24T16:57:31.798Z,92.40
2023-02-24T16:59:58.443Z,92.00
2023-02-24T17:02:25.159Z,92.20
2023-02-24T17:04:51.841Z,92.40
2023-02-24T17:07:18.515Z,92.90
2023-02-24T17:09:45.125Z,92.50
2023-02-24T17:12:11.891Z,92.70
2023-02-24T17:14:38.992Z,92.90
2023-02-24T17:17:05.677Z,93.20
2023-02-24T17:19:32.394Z,93.10
2023-02-24T17:21:59.004Z,93.60
2023-02-24T17:24:25.666Z,93.70
2023-02-24T17:26:52.444Z,93.40
2023-02-24T17:29:19.119Z,92.90
2023-02-24T17:31:45.916Z,93.00
2023-02-24T17:34:12.802Z,93.10
2023-02-24T17:36:39.522Z,92.70
2023-02-24T17:39:06.215Z,92.90
2023-02-24T17:41:32.929Z,92.90
2023-02-24T17:43:59.554Z,92.90
2023-02-24T17:46:26.500Z,92.60
2023-02-24T17:48:53.283Z,92.70
2023-02-24T17:51:19.939Z,92.90
2023-02-24T17:53:46.834Z,93.10
2023-02-24T17:56:13.433Z,92.60
2023-02-24T17:58:40.254Z,92.70
2023-02-24T18:01:06.960Z,92.80
2023-02-24T18:03:33.680Z,93.00
2023-02-24T18:06:00.397Z,93.30
2023-02-24T18:08:27.095Z,92.80
2023-02-24T18:10:53.690Z,92.90
2023-02-24T18:13:20.378Z,92.90
2023-02-24T18:15:47.084Z,93.00
2023-02-24T18:18:13.773Z,93.00
2023-02-24T18:20:40.395Z,93.30
2023-02-24T18:23:07.067Z,93.10
2023-02-24T18:25:33.721Z,92.80
2023-02-24T18:28:00.430Z,92.90
2023-02-24T18:30:27.204Z,92.70
2023-02-24T18:32:54.048Z,92.90
2023-02-24T18:35:20.806Z,93.10
2023-02-24T18:37:47.439Z,93.30
2023-02-24T18:40:14.091Z,93.30
2023-02-24T18:42:40.794Z,93.30
2023-02-24T18:45:07.517Z,93.50
2023-02-24T18:47:34.200Z,93.90
2023-02-24T18:50:00.838Z,93.70
2023-02-24T18:52:27.494Z,93.70
2023-02-24T18:54:54.165Z,93.70
2023-02-24T18:57:20.773Z,93.50
2023-02-24T18:59:47.441Z,93.60
2023-02-24T19:02:14.184Z,93.70
2023-02-24T19:04:40.887Z,93.60
2023-02-24T19:07:07.530Z,94.30
2023-02-24T19:09:34.164Z,93.70
2023-02-24T19:12:00.817Z,93.50
2023-02-24T19:14:27.480Z,93.50
2023-02-24T19:16:54.207Z,93.40
2023-02-24T19:19:23.564Z,93.50
2023-02-24T19:21:50.233Z,93.10
2023-02-24T19:24:16.952Z,93.20
2023-02-24T19:26:43.645Z,92.90
2023-02-24T19:29:10.266Z,93.00
2023-02-24T19:31:37.063Z,93.20
2023-02-24T19:34:03.799Z,93.30
2023-02-24T19:36:30.439Z,93.00
2023-02-24T19:38:57.137Z,93.00
2023-02-24T19:41:23.784Z,92.90
2023-02-24T19:43:50.482Z,93.40
2023-02-24T19:46:17.201Z,93.20
2023-02-24T19:48:44.549Z,93.20
2023-02-24T19:51:11.297Z,93.40
2023-02-24T19:53:37.954Z,93.40
2023-02-24T19:56:04.655Z,93.30
2023-02-24T19:58:31.348Z,93.20
2023-02-24T20:00:58.075Z,93.00
2023-02-24T20:03:24.749Z,92.90
2023-02-24T20:05:51.394Z,92.70
2023-02-24T20:08:18.090Z,92.80
2023-02-24T20:10:44.742Z,92.60
2023-02-24T20:13:11.413Z,92.60
2023-02-24T20:15:38.059Z,92.80
2023-02-24T20:18:04.761Z,93.00
2023-02-24T20:20:31.436Z,93.10
2023-02-24T20:22:58.106Z,93.00
2023-02-24T20:25:24.771Z,93.00
2023-02-24T20:27:53.774Z,93.10
2023-02-24T20:30:20.435Z,93.20
2023-02-24T20:32:47.228Z,93.20
2023-02-24T20:35:17.041Z,93.20
2023-02-24T20:37:43.723Z,93.40
2023-02-24T20:40:10.354Z,93.40
2023-02-24T20:42:37.024Z,93.30
2023-02-24T20:45:03.722Z,93.60
2023-02-24T20:47:30.407Z,93.70
2023-02-24T20:49:57.098Z,93.30
2023-02-24T20:52:23.746Z,93.30
2023-02-24T20:54:50.443Z,93.00
2023-02-24T20:57:17.073Z,93.10
2023-02-24T20:59:49.290Z,93.20
2023-02-24T21:02:21.381Z,93.00
2023-02-24T21:04:48.107Z,93.00
2023-02-24T21:07:14.751Z,93.00
2023-02-24T21:09:43.829Z,93.10
2023-02-24T21:12:10.482Z,93.00
2023-02-24T21:14:37.164Z,93.30
2023-02-24T21:17:03.844Z,93.20
2023-02-24T21:19:30.510Z,93.00
2023-02-24T21:21:57.168Z,92.90
2023-02-24T21:24:23.825Z,92.90
2023-02-24T21:26:50.499Z,92.80
2023-02-24T21:29:17.204Z,92.70
2023-02-24T21:31:44.082Z,93.10
2023-02-24T21:34:10.839Z,93.20
2023-02-24T21:36:37.602Z,93.20
2023-02-24T21:39:04.294Z,93.20
2023-02-24T21:41:30.956Z,93.90
2023-02-24T21:43:57.665Z,93.60
2023-02-24T21:46:24.749Z,94.00
2023-02-24T21:48:51.674Z,94.30
2023-02-24T21:51:18.389Z,94.50
2023-02-24T21:53:45.099Z,94.50
2023-02-24T21:56:11.800Z,94.80
2023-02-24T21:58:38.474Z,94.50
2023-02-24T22:01:05.135Z,94.50
2023-02-24T22:03:31.844Z,94.80
2023-02-24T22:05:58.585Z,94.70
2023-02-24T22:08:25.309Z,95.20
2023-02-24T22:10:51.966Z,95.20
2023-02-24T22:13:18.619Z,95.60
2023-02-24T22:15:45.323Z,95.70
2023-02-24T22:18:12.026Z,96.60
2023-02-24T22:20:38.661Z,97.10
2023-02-24T22:23:05.333Z,96.90
2023-02-24T22:25:31.987Z,97.10
2023-02-24T22:27:58.804Z,97.30
2023-02-24T22:30:25.496Z,97.30
2023-02-24T22:32:52.210Z,97.60
2023-02-24T22:35:18.915Z,97.10
2023-02-24T22:37:45.588Z,97.00
2023-02-24T22:40:12.266Z,97.20
2023-02-24T22:42:38.907Z,97.00
2023-02-24T22:45:12.898Z,97.40
2023-02-24T22:47:39.524Z,97.50
2023-02-24T22:50:06.278Z,97.80
2023-02-24T22:52:32.904Z,97.70
2023-02-24T22:54:59.578Z,97.80
2023-02-24T22:57:26.265Z,97.80
2023-02-24T22:59:52.980Z,98.20
2023-02-24T23:02:19.726Z,98.10
2023-02-24T23:04:46.425Z,98.20
2023-02-24T23:07:13.098Z,98.10
2023-02-24T23:09:39.745Z,98.10
2023-02-24T23:12:06.412Z,97.70
2023-02-24T23:14:33.054Z,97.30
2023-02-24T23:16:59.740Z,98.40
2023-02-24T23:19:26.358Z,98.60
2023-02-24T23:21:53.099Z,98.30
2023-02-24T23:24:19.856Z,98.20
2023-02-24T23:26:46.544Z,98.60
2023-02-24T23:29:13.164Z,98.30
2023-02-24T23:31:39.920Z,99.00
2023-02-24T23:34:06.638Z,98.70
2023-02-24T23:36:33.298Z,98.10
2023-02-24T23:38:59.969Z,98.70
2023-02-24T23:41:26.638Z,98.30
2023-02-24T23:43:53.394Z,98.80
2023-02-24T23:46:20.183Z,98.80
2023-02-24T23:48:47.294Z,99.30
2023-02-24T23:51:13.932Z,99.30
2023-02-24T23:53:40.629Z,99.90
2023-02-24T23:56:07.240Z,99.90
2023-02-24T23:58:33.943Z,99.90
